createdAt,value
2019-03-02T01:02:04.426Z,10.73
2019-03-02T01:07:02.639Z,10.47
2019-03-02T01:12:05.899Z,11.30
2019-03-02T01:17:06.065Z,10.93
2019-03-02T01:22:07.371Z,10.13
2019-03-02T01:27:08.710Z,11.20
2019-03-02T02:35:39.483Z,12.93
2019-03-02T02:40:35.375Z,12.53
2019-03-02T02:45:36.666Z,12.07
2019-03-02T02:50:37.965Z,12.33
2019-03-02T02:55:40.877Z,13.80
2019-03-02T04:04:01.599Z,11.73
2019-03-02T04:09:07.717Z,13.43
2019-03-02T04:14:04.996Z,12.57
2019-03-02T04:19:06.325Z,13.60
2019-03-02T04:24:07.649Z,13.40
2019-03-02T04:29:11.386Z,13.63
2019-03-02T06:02:54.828Z,10.30
2019-03-02T06:07:57.542Z,9.87
2019-03-02T06:12:57.678Z,9.80
2019-03-02T06:17:59.706Z,11.10
2019-03-02T06:23:00.984Z,12.73
2019-03-02T06:28:02.246Z,12.40
2019-03-02T06:33:05.108Z,12.77
2019-03-02T06:38:04.889Z,13.50
2019-03-02T06:43:06.231Z,14.90
2019-03-02T06:48:09.633Z,14.27
2019-03-02T06:53:09.496Z,13.40
2019-03-02T06:58:10.778Z,14.23
2019-03-02T07:03:12.906Z,14.60
2019-03-02T07:08:14.337Z,15.00
2019-03-02T07:13:17.817Z,14.07
2019-03-02T07:18:26.915Z,13.33
2019-03-02T07:23:28.789Z,14.00
2019-03-02T07:28:29.708Z,13.90
2019-03-02T07:33:31.044Z,15.13
2019-03-02T07:38:32.448Z,14.00
2019-03-02T07:43:34.532Z,15.40
2019-03-02T07:48:36.908Z,13.27
2019-03-02T07:53:38.790Z,13.67
2019-03-02T07:58:40.838Z,13.70
2019-03-02T08:03:42.164Z,13.63
2019-03-02T08:08:45.815Z,13.30
2019-03-02T08:13:45.645Z,14.13
2019-03-02T08:18:46.941Z,14.47
2019-03-02T08:23:48.253Z,13.40
2019-03-02T08:28:50.940Z,12.17
2019-03-02T08:33:50.932Z,13.70
2019-03-02T08:38:52.256Z,13.53
2019-03-02T08:43:53.557Z,13.63
2019-03-02T08:48:54.863Z,13.27
2019-03-02T08:53:56.167Z,12.97
2019-03-02T08:58:57.987Z,12.83
2019-03-02T09:04:00.219Z,10.93
2019-03-02T09:09:01.549Z,10.43
2019-03-02T09:14:02.865Z,11.87
2019-03-02T09:19:04.229Z,11.60
2019-03-02T09:24:05.568Z,11.27
2019-03-02T09:29:06.883Z,10.87
2019-03-02T09:34:08.975Z,10.77
2019-03-02T09:39:11.133Z,10.80
2019-03-02T09:44:12.519Z,10.93
2019-03-02T09:49:23.952Z,9.50
2019-03-02T09:54:25.259Z,9.63
2019-03-02T09:59:33.744Z,10.00
2019-03-02T10:04:42.449Z,9.70
2019-03-02T10:09:46.508Z,9.30
2019-03-02T10:14:47.798Z,9.83
2019-03-02T10:19:49.213Z,9.90
2019-03-02T10:24:53.279Z,8.87
2019-03-02T10:29:51.952Z,8.47
2019-03-02T10:34:53.364Z,8.73
2019-03-02T10:39:54.725Z,7.80
2019-03-02T10:44:57.294Z,8.90
2019-03-02T10:49:57.341Z,8.57
2019-03-02T10:54:58.699Z,9.03
2019-03-02T11:00:00.046Z,8.67
2019-03-02T11:05:01.507Z,8.10
2019-03-02T11:15:39.633Z,10.70
2019-03-02T11:20:41.839Z,8.37
2019-03-02T11:25:45.501Z,7.80
2019-03-02T11:30:48.586Z,8.53
2019-03-02T11:41:18.046Z,11.10
2019-03-02T11:46:21.088Z,8.20
2019-03-02T11:51:24.086Z,7.73
2019-03-02T11:56:30.156Z,9.10
2019-03-02T12:01:37.586Z,8.57
2019-03-02T12:06:41.941Z,7.87
2019-03-02T12:11:46.909Z,9.10
2019-03-02T12:22:42.473Z,10.40
2019-03-02T12:27:49.792Z,8.30
2019-03-02T12:32:52.011Z,8.60
2019-03-02T12:43:28.525Z,10.13
2019-03-02T12:48:31.765Z,9.13
2019-03-02T12:53:45.344Z,8.50
2019-03-02T12:58:55.427Z,9.50
2019-03-02T13:03:55.625Z,8.17
2019-03-02T13:09:13.523Z,8.30
2019-03-02T13:14:19.231Z,8.23
2019-03-02T13:19:23.005Z,7.97
2019-03-02T13:24:26.688Z,7.50
2019-03-02T13:29:34.911Z,8.53
2019-03-02T13:40:26.305Z,10.73
2019-03-02T13:45:31.970Z,9.77
2019-03-02T13:50:39.396Z,7.80
2019-03-02T13:55:50.856Z,7.73
2019-03-02T14:01:01.793Z,7.57
2019-03-02T14:06:19.743Z,7.13
2019-03-02T14:11:26.360Z,8.03
2019-03-02T14:22:02.676Z,9.83
2019-03-02T14:27:11.453Z,8.67
2019-03-02T14:32:26.511Z,8.67
2019-03-02T14:37:29.729Z,7.60
2019-03-02T14:42:31.885Z,7.90
2019-03-02T14:47:36.594Z,7.17
2019-03-02T14:52:38.531Z,7.10
2019-03-02T15:03:14.977Z,9.40
2019-03-02T15:08:17.082Z,8.03
2019-03-02T15:18:50.221Z,10.10
2019-03-02T15:29:37.168Z,9.57
2019-03-02T15:34:49.680Z,7.70
2019-03-02T15:39:53.630Z,7.07
2019-03-02T15:45:00.536Z,8.03
2019-03-02T15:55:30.321Z,9.60
2019-03-02T16:00:36.520Z,7.43
2019-03-02T16:05:44.190Z,8.17
2019-03-02T16:10:48.156Z,6.67
2019-03-02T16:15:54.464Z,6.93
2019-03-02T16:21:03.660Z,6.20
2019-03-02T16:26:07.111Z,6.60
2019-03-02T16:31:12.502Z,6.70
2019-03-02T16:36:13.948Z,6.50
2019-03-02T16:41:18.345Z,7.50
2019-03-02T16:46:21.462Z,7.40
2019-03-02T16:51:29.716Z,7.50
2019-03-02T16:56:36.123Z,7.67
2019-03-02T17:01:53.433Z,6.53
2019-03-02T17:07:01.724Z,6.90
2019-03-02T17:12:08.276Z,6.97
2019-03-02T17:17:12.035Z,7.00
2019-03-02T17:22:12.527Z,7.37
2019-03-02T17:27:17.785Z,7.43
2019-03-02T17:32:19.185Z,6.30
2019-03-02T17:37:23.495Z,6.93
2019-03-02T17:42:31.844Z,6.10
2019-03-02T17:53:05.748Z,9.37
2019-03-02T17:58:15.392Z,5.90
2019-03-02T18:03:25.048Z,6.77
2019-03-02T18:08:39.067Z,6.90
2019-03-02T18:13:49.021Z,5.77
2019-03-02T18:18:51.703Z,6.43
2019-03-02T18:23:55.795Z,5.83
2019-03-02T18:28:55.903Z,5.87
2019-03-02T18:33:57.792Z,6.93
2019-03-02T18:39:01.167Z,6.13
2019-03-02T18:44:01.975Z,5.63
2019-03-02T18:49:13.839Z,7.00
2019-03-02T18:54:12.111Z,7.30
2019-03-02T18:59:13.636Z,7.33
2019-03-02T19:04:14.984Z,6.67
2019-03-02T19:09:16.332Z,6.97
2019-03-02T19:14:21.061Z,6.93
2019-03-02T19:19:22.895Z,6.90
2019-03-02T19:24:24.626Z,7.17
2019-03-02T19:29:26.004Z,7.20
2019-03-02T19:34:27.975Z,6.93
2019-03-02T19:39:30.610Z,7.23
2019-03-02T19:44:33.430Z,7.43
2019-03-02T19:49:36.044Z,6.90
2019-03-02T19:54:38.795Z,6.87
2019-03-02T19:59:43.818Z,7.40
2019-03-02T20:04:47.052Z,7.43
2019-03-02T20:09:50.091Z,7.07
2019-03-02T20:14:52.005Z,6.73
2019-03-02T20:19:53.997Z,7.43
2019-03-02T20:24:58.576Z,7.43
2019-03-02T20:30:01.656Z,7.50
2019-03-02T20:35:04.199Z,8.03
2019-03-02T20:40:08.121Z,8.13
2019-03-02T20:45:12.297Z,7.90
2019-03-02T20:50:15.992Z,8.10
2019-03-02T20:55:18.003Z,8.20
2019-03-02T21:00:34.802Z,8.93
2019-03-02T21:05:39.351Z,8.73
2019-03-02T21:10:48.402Z,8.70
2019-03-02T21:15:53.395Z,8.90
2019-03-02T21:20:56.021Z,8.07
2019-03-02T21:26:03.066Z,8.77
2019-03-02T21:31:06.938Z,7.50
2019-03-02T21:36:13.923Z,7.83
2019-03-02T21:41:18.360Z,7.40
2019-03-02T21:46:20.392Z,7.80
2019-03-02T21:51:21.724Z,7.60
2019-03-02T21:56:23.031Z,6.83
2019-03-02T22:01:24.333Z,6.80
2019-03-02T22:06:26.425Z,6.40
2019-03-02T22:11:27.810Z,6.10
2019-03-02T22:16:29.094Z,6.60
2019-03-02T22:21:30.457Z,6.37
2019-03-02T22:26:31.726Z,6.23
2019-03-02T22:31:35.995Z,7.10
2019-03-02T22:36:37.947Z,6.00
2019-03-02T22:41:39.250Z,5.77
2019-03-02T22:46:40.544Z,5.40
2019-03-02T22:51:41.897Z,4.97
2019-03-02T22:56:43.227Z,4.80
2019-03-02T23:33:24.907Z,3.90
2019-03-02T23:38:26.197Z,4.83
2019-03-02T23:43:28.205Z,3.97
2019-03-02T23:48:29.507Z,3.87
2019-03-02T23:53:30.798Z,4.00
2019-03-02T23:58:32.835Z,3.80
